Time;durP1;ratioP1;P1;durP2;ratioP2;P2;SDS_P1;SDS_P2;PMS_P1;PMS_P2;Temp;Humidity;BMP_temperature;BMP_pressure;BME280_temperature;BME280_humidity;BME280_pressure;Samples;Min_cycle;Max_cycle;Signal;HPM_P1;HPM_P2
2024/01/30 00:01:00;;;;;;;;;6.67;6.67;;;;;20.96;44.25;102460.09;6368187;22;45190;-79
2024/01/30 00:03:26;;;;;;;;;6.67;6.67;;;;;21.00;44.06;102463.28;6368096;22;45774;-80
2024/01/30 00:05:52;;;;;;;;;4.50;4.50;;;;;21.00;44.41;102462.47;6369009;22;45223;-80
2024/01/30 00:08:17;;;;;;;;;6.33;4.67;;;;;20.99;44.29;102460.78;6367833;22;46804;-79
2024/01/30 00:10:43;;;;;;;;;7.33;5.67;;;;;20.98;44.15;102452.00;6367932;22;45268;-79
2024/01/30 00:13:08;;;;;;;;;6.00;6.00;;;;;20.99;44.05;102448.41;6367858;22;45316;-79
2024/01/30 00:15:34;;;;;;;;;6.00;5.67;;;;;20.99;44.50;102451.03;6367852;22;45347;-79
2024/01/30 00:17:59;;;;;;;;;3.00;3.00;;;;;20.98;44.09;102456.44;6368094;22;45382;-80
2024/01/30 00:20:25;;;;;;;;;5.67;5.67;;;;;20.87;44.47;102442.34;6367493;22;45260;-80
2024/01/30 00:22:50;;;;;;;;;5.33;5.00;;;;;20.83;44.04;102443.59;6368249;22;45800;-80
2024/01/30 00:25:15;;;;;;;;;8.00;6.00;;;;;20.88;44.16;102451.13;6368115;22;45395;-79
2024/01/30 00:27:41;;;;;;;;;9.00;6.00;;;;;20.66;44.14;102413.31;6366875;22;50091;-80
2024/01/30 00:30:07;;;;;;;;;4.67;4.67;;;;;20.94;44.04;102453.25;6367913;22;45331;-80
2024/01/30 00:32:32;;;;;;;;;6.33;6.33;;;;;20.96;44.18;102461.88;6368108;22;45326;-80
2024/01/30 00:34:57;;;;;;;;;6.00;6.00;;;;;20.95;43.74;102461.03;6367988;22;45284;-80
2024/01/30 00:37:23;;;;;;;;;6.67;6.67;;;;;20.82;44.37;102445.41;6367930;22;45869;-79
2024/01/30 00:39:48;;;;;;;;;5.33;5.00;;;;;20.87;43.77;102444.19;6367430;22;45329;-80
2024/01/30 00:42:14;;;;;;;;;6.00;4.00;;;;;20.95;44.19;102454.91;6367157;22;45313;-80
2024/01/30 00:44:39;;;;;;;;;6.25;6.25;;;;;20.81;43.92;102437.59;6367550;22;45661;-81
2024/01/30 00:47:05;;;;;;;;;6.00;5.67;;;;;20.82;44.30;102452.50;6339101;22;47205;-79
2024/01/30 00:49:30;;;;;;;;;7.75;6.00;;;;;20.87;44.10;102452.94;6339380;22;45244;-80
2024/01/30 00:51:56;;;;;;;;;8.33;6.33;;;;;20.84;44.15;102448.75;6367140;22;45256;-80
2024/01/30 00:54:21;;;;;;;;;8.33;6.00;;;;;20.70;43.72;102417.38;6367530;22;45431;-80
2024/01/30 00:56:46;;;;;;;;;7.00;5.33;;;;;20.81;43.78;102438.44;6366612;22;49068;-79
2024/01/30 00:59:11;;;;;;;;;6.00;5.33;;;;;20.80;43.91;102439.41;6367972;22;45237;-79
2024/01/30 01:01:37;;;;;;;;;4.75;4.75;;;;;20.84;44.19;102442.63;6369125;22;45207;-79
2024/01/30 01:04:02;;;;;;;;;6.50;3.50;;;;;20.88;43.95;102440.53;6369179;22;45438;-79
2024/01/30 01:06:27;;;;;;;;;5.67;5.67;;;;;20.81;44.26;102433.16;6368445;22;46038;-80
2024/01/30 01:08:53;;;;;;;;;10.50;8.25;;;;;20.84;43.71;102453.22;6368577;22;52182;-80
2024/01/30 01:11:18;;;;;;;;;8.00;7.00;;;;;20.89;44.07;102453.66;6368134;22;45161;-80
2024/01/30 01:13:43;;;;;;;;;8.25;6.50;;;;;20.82;43.94;102447.19;6368864;22;45192;-80
2024/01/30 01:16:09;;;;;;;;;7.00;4.75;;;;;20.88;44.14;102446.69;6368872;22;45260;-80
2024/01/30 01:18:34;;;;;;;;;9.33;7.00;;;;;20.87;43.76;102433.59;6368848;22;45316;-79
2024/01/30 01:21:00;;;;;;;;;6.00;5.67;;;;;20.86;44.02;102438.03;6368659;22;50463;-80
2024/01/30 01:23:26;;;;;;;;;8.33;6.00;;;;;20.95;43.90;102450.47;6368679;22;45270;-80
2024/01/30 01:25:51;;;;;;;;;6.00;5.00;;;;;20.88;43.79;102432.59;6368381;22;46164;-80
2024/01/30 01:28:16;;;;;;;;;5.75;5.75;;;;;20.95;43.71;102453.09;6368736;22;45304;-80
2024/01/30 01:30:41;;;;;;;;;7.33;6.33;;;;;20.82;43.80;102423.38;6368690;22;46078;-79
2024/01/30 01:33:07;;;;;;;;;5.75;5.75;;;;;20.72;44.09;102397.75;6368950;22;45287;-79
2024/01/30 01:35:32;;;;;;;;;6.75;6.75;;;;;20.88;43.98;102428.16;6339819;22;58602;-80
2024/01/30 01:37:59;;;;;;;;;7.00;6.67;;;;;20.96;43.75;102441.56;6368789;22;47873;-80
2024/01/30 01:40:26;;;;;;;;;5.00;5.00;;;;;20.99;43.60;102437.81;6368304;22;45243;-79
2024/01/30 01:42:52;;;;;;;;;5.00;5.00;;;;;20.95;43.68;102434.59;6368679;22;45435;-79
2024/01/30 01:45:19;;;;;;;;;6.00;6.00;;;;;20.84;43.79;102416.19;6368208;22;46292;-79
2024/01/30 01:47:47;;;;;;;;;5.00;4.67;;;;;20.96;43.91;102438.91;6368495;22;45367;-80
2024/01/30 01:50:18;;;;;;;;;7.00;7.00;;;;;20.94;43.46;102440.88;6340180;22;45434;-79
2024/01/30 01:52:43;;;;;;;;;7.00;5.67;;;;;20.77;43.85;102413.22;6368306;22;45391;-79
2024/01/30 01:55:11;;;;;;;;;7.00;5.67;;;;;20.85;43.73;102420.47;6368213;22;46357;-79
2024/01/30 01:57:36;;;;;;;;;7.33;5.33;;;;;20.65;43.43;102380.75;6368342;22;45367;-79
2024/01/30 02:00:03;;;;;;;;;8.00;7.00;;;;;20.81;43.98;102404.06;6368326;22;45353;-79
2024/01/30 02:02:30;;;;;;;;;3.67;3.67;;;;;20.88;43.82;102404.34;6368527;22;45227;-80
2024/01/30 02:04:57;;;;;;;;;6.33;6.00;;;;;20.90;43.75;102417.44;6368123;22;46271;-80
2024/01/30 02:07:23;;;;;;;;;5.67;5.67;;;;;20.90;44.04;102412.13;6340716;22;45283;-80
2024/01/30 02:09:48;;;;;;;;;5.00;5.00;;;;;20.77;43.77;102389.41;6367875;22;45306;-80
2024/01/30 02:12:13;;;;;;;;;8.75;7.25;;;;;20.88;44.16;102412.28;6367869;22;46884;-80
2024/01/30 02:14:46;;;;;;;;;5.67;5.67;;;;;20.86;43.98;102408.94;6368066;22;46087;-79
2024/01/30 02:17:12;;;;;;;;;6.75;6.75;;;;;20.83;43.93;102410.03;6368801;22;45220;-80
2024/01/30 02:19:37;;;;;;;;;6.75;6.25;;;;;20.73;43.93;102398.59;6368216;22;45216;-79
2024/01/30 02:22:03;;;;;;;;;4.33;4.33;;;;;20.77;44.04;102410.56;6368391;22;45425;-79
2024/01/30 02:24:28;;;;;;;;;5.67;4.33;;;;;20.87;43.95;102434.41;6368134;22;45362;-80
2024/01/30 02:26:53;;;;;;;;;5.33;4.67;;;;;20.85;43.88;102429.25;6368343;22;47335;-79
2024/01/30 02:29:19;;;;;;;;;6.00;4.00;;;;;20.85;43.67;102420.47;6368584;22;45162;-80
2024/01/30 02:31:45;;;;;;;;;4.67;3.67;;;;;20.86;43.70;102427.47;6368869;22;45140;-80
2024/01/30 02:34:11;;;;;;;;;5.67;5.67;;;;;20.87;43.68;102420.38;6367905;22;46459;-80
2024/01/30 02:36:36;;;;;;;;;7.00;7.00;;;;;20.86;43.71;102422.16;6367824;22;45271;-80
2024/01/30 02:39:02;;;;;;;;;6.33;5.33;;;;;20.82;43.57;102418.94;6367880;22;52451;-80
2024/01/30 02:41:27;;;;;;;;;6.33;4.67;;;;;20.88;43.98;102433.44;6368695;22;45300;-80
2024/01/30 02:43:52;;;;;;;;;7.00;7.00;;;;;20.69;43.62;102407.75;6368525;22;45284;-79
2024/01/30 02:46:17;;;;;;;;;8.33;7.33;;;;;20.89;43.60;102435.13;6368505;22;45296;-80
2024/01/30 02:48:43;;;;;;;;;5.67;5.33;;;;;20.90;43.76;102441.25;6368265;22;45291;-80
2024/01/30 02:51:08;;;;;;;;;9.00;6.00;;;;;20.87;43.76;102420.38;6368647;22;45193;-79
2024/01/30 02:53:33;;;;;;;;;3.67;3.67;;;;;20.80;43.56;102409.47;6367366;22;47095;-79
2024/01/30 02:55:59;;;;;;;;;2.67;2.67;;;;;20.91;44.12;102429.69;6367285;22;58384;-80
2024/01/30 02:58:24;;;;;;;;;9.33;5.67;;;;;20.91;43.49;102424.41;6368741;22;45270;-79
2024/01/30 03:00:49;;;;;;;;;4.75;4.75;;;;;20.88;44.06;102419.38;6340026;22;45458;-79
2024/01/30 03:03:14;;;;;;;;;4.00;4.00;;;;;20.71;43.63;102405.81;6368413;22;45205;-80
2024/01/30 03:05:40;;;;;;;;;5.67;5.33;;;;;20.92;43.60;102436.69;6368448;22;45293;-80
2024/01/30 03:08:05;;;;;;;;;4.67;4.67;;;;;20.77;43.86;102415.00;6367777;22;45228;-80
2024/01/30 03:10:31;;;;;;;;;5.67;5.67;;;;;20.79;44.00;102416.56;6368632;22;45430;-80
2024/01/30 03:12:56;;;;;;;;;4.00;4.00;;;;;20.84;43.95;102432.88;6368164;22;45991;-80
2024/01/30 03:15:21;;;;;;;;;9.00;5.00;;;;;20.88;43.77;102435.25;6367873;22;57577;-80
2024/01/30 03:17:46;;;;;;;;;5.33;5.33;;;;;20.83;43.83;102438.31;6367949;22;45240;-80
2024/01/30 03:20:12;;;;;;;;;4.67;4.67;;;;;20.85;43.40;102450.44;6368075;22;45425;-80
2024/01/30 03:22:37;;;;;;;;;8.00;6.67;;;;;20.70;43.74;102428.78;6367636;22;45762;-80
2024/01/30 03:25:03;;;;;;;;;6.00;5.33;;;;;20.74;44.04;102438.13;6368436;22;45127;-80
2024/01/30 03:27:28;;;;;;;;;3.00;3.00;;;;;20.76;44.09;102440.66;6340180;22;45322;-79
2024/01/30 03:29:54;;;;;;;;;5.00;5.00;;;;;20.83;43.76;102455.03;6367988;22;45291;-80
2024/01/30 03:32:19;;;;;;;;;5.00;5.00;;;;;20.81;43.94;102445.53;6367751;22;57612;-80
2024/01/30 03:34:44;;;;;;;;;5.00;5.00;;;;;20.71;43.73;102445.50;6368254;22;45324;-80
2024/01/30 03:37:10;;;;;;;;;6.33;6.33;;;;;20.69;43.81;102440.31;6368409;22;45426;-79
2024/01/30 03:39:36;;;;;;;;;5.00;5.00;;;;;20.70;43.63;102441.16;6368169;22;45480;-80
2024/01/30 03:42:02;;;;;;;;;6.33;5.00;;;;;20.79;43.80;102440.38;6367745;22;46270;-79
2024/01/30 03:44:27;;;;;;;;;6.33;6.00;;;;;20.80;43.72;102449.16;6339857;22;45322;-79
2024/01/30 03:46:52;;;;;;;;;5.33;5.00;;;;;20.73;43.65;102439.09;6367763;22;57117;-80
2024/01/30 03:49:17;;;;;;;;;5.33;5.33;;;;;20.71;43.78;102427.81;6367143;22;61519;-79
2024/01/30 03:51:43;;;;;;;;;8.25;6.00;;;;;20.84;43.48;102451.38;6367697;22;46081;-79
2024/01/30 03:54:08;;;;;;;;;3.67;3.67;;;;;20.78;43.76;102446.66;6368356;22;45299;-80
2024/01/30 03:56:33;;;;;;;;;7.00;6.33;;;;;20.68;43.98;102435.19;6368508;22;45260;-80
2024/01/30 03:59:00;;;;;;;;;5.00;5.00;;;;;20.83;43.73;102448.88;6367592;22;48046;-79
2024/01/30 04:01:26;;;;;;;;;5.33;5.00;;;;;20.69;44.11;102432.38;6367896;22;46336;-79
2024/01/30 04:03:51;;;;;;;;;7.00;7.00;;;;;20.74;43.87;102439.94;6367852;22;46544;-80
2024/01/30 04:06:16;;;;;;;;;6.25;5.50;;;;;20.82;43.93;102453.34;6368928;22;45179;-80
2024/01/30 04:08:41;;;;;;;;;4.33;4.33;;;;;20.70;43.88;102438.53;6368237;22;45445;-80
2024/01/30 04:11:07;;;;;;;;;5.67;5.33;;;;;20.80;43.46;102454.44;6367537;22;46906;-80
2024/01/30 04:13:33;;;;;;;;;5.67;5.67;;;;;20.71;43.62;102446.31;6367777;22;45158;-80
2024/01/30 04:16:01;;;;;;;;;6.67;4.67;;;;;20.83;43.71;102470.91;6367947;22;45169;-80
2024/01/30 04:18:27;;;;;;;;;7.67;6.33;;;;;20.82;43.44;102468.34;6367222;22;45307;-80
2024/01/30 04:20:52;;;;;;;;;5.00;5.00;;;;;20.83;43.69;102462.13;6367894;22;46488;-80
2024/01/30 04:23:17;;;;;;;;;4.00;4.00;;;;;20.82;43.71;102457.78;6368018;22;45273;-80
2024/01/30 04:25:43;;;;;;;;;7.00;6.00;;;;;20.85;43.49;102454.88;6367932;22;47992;-80
2024/01/30 04:28:08;;;;;;;;;7.67;5.00;;;;;20.82;43.79;102452.50;6367437;22;49939;-80
2024/01/30 04:30:33;;;;;;;;;4.67;4.67;;;;;20.77;43.30;102449.41;6367002;22;52911;-80
2024/01/30 04:32:58;;;;;;;;;6.67;5.67;;;;;20.56;43.61;102407.97;6366859;22;45272;-80
2024/01/30 04:35:24;;;;;;;;;6.33;5.67;;;;;20.70;43.96;102428.78;6367575;22;45259;-79
2024/01/30 04:37:51;;;;;;;;;4.33;4.33;;;;;20.82;43.55;102449.84;6368266;22;45233;-79
2024/01/30 04:40:16;;;;;;;;;8.33;6.33;;;;;20.74;43.78;102440.75;6367216;22;46268;-79
2024/01/30 04:42:42;;;;;;;;;6.33;4.67;;;;;20.83;43.77;102459.47;6367633;22;45297;-79
2024/01/30 04:45:07;;;;;;;;;6.67;5.33;;;;;20.87;43.88;102457.41;6339251;22;51301;-79
2024/01/30 04:47:33;;;;;;;;;4.67;4.67;;;;;20.79;43.50;102448.31;6367146;22;45578;-79
2024/01/30 04:49:58;;;;;;;;;5.00;5.00;;;;;20.88;43.84;102469.66;6367716;22;45274;-79
2024/01/30 04:52:23;;;;;;;;;6.00;5.00;;;;;20.81;43.50;102456.13;6367002;22;62543;-79
2024/01/30 04:54:48;;;;;;;;;5.67;5.67;;;;;20.78;43.62;102451.94;6367551;22;45233;-79
2024/01/30 04:57:14;;;;;;;;;4.67;4.67;;;;;20.75;43.92;102446.91;6367589;22;45220;-79
2024/01/30 04:59:39;;;;;;;;;6.00;6.00;;;;;20.70;43.66;102435.88;6338865;22;49221;-79
2024/01/30 05:02:05;;;;;;;;;8.67;6.67;;;;;20.84;43.52;102469.91;6366838;22;45355;-80
2024/01/30 05:04:30;;;;;;;;;5.00;5.00;;;;;20.80;43.89;102449.16;6367510;22;45291;-78
2024/01/30 05:06:55;;;;;;;;;7.00;5.67;;;;;20.76;43.76;102450.38;6367743;22;45280;-79
2024/01/30 05:09:21;;;;;;;;;5.67;5.67;;;;;20.83;43.67;102470.03;6367601;22;45327;-79
2024/01/30 05:11:46;;;;;;;;;5.33;5.33;;;;;20.75;43.75;102462.78;6367597;22;45327;-80
2024/01/30 05:14:11;;;;;;;;;7.50;6.00;;;;;20.80;43.66;102473.78;6367592;22;45324;-80
2024/01/30 05:16:37;;;;;;;;;8.00;5.00;;;;;20.69;43.80;102471.22;6366748;22;45386;-80
2024/01/30 05:19:02;;;;;;;;;6.33;6.33;;;;;20.80;43.93;102480.88;6367000;22;46266;-80
2024/01/30 05:21:28;;;;;;;;;3.67;3.67;;;;;20.69;43.60;102458.84;6366996;22;45312;-79
2024/01/30 05:23:53;;;;;;;;;4.33;4.33;;;;;20.78;43.54;102475.75;6367184;22;45238;-80
2024/01/30 05:26:18;;;;;;;;;7.00;5.00;;;;;20.81;43.79;102480.78;6339566;22;45426;-80
2024/01/30 05:28:46;;;;;;;;;9.00;6.00;;;;;20.74;44.17;102472.50;6367243;22;46046;-80
2024/01/30 05:31:12;;;;;;;;;5.75;5.50;;;;;20.82;44.02;102490.38;6366532;22;45237;-79
2024/01/30 05:33:37;;;;;;;;;5.33;5.33;;;;;20.81;43.66;102485.22;6367259;22;45235;-80
2024/01/30 05:36:03;;;;;;;;;6.67;5.00;;;;;20.82;43.93;102489.53;6367133;22;45132;-80
2024/01/30 05:38:28;;;;;;;;;6.33;4.67;;;;;20.69;43.94;102472.06;6367208;22;45486;-79
2024/01/30 05:40:54;;;;;;;;;3.67;3.67;;;;;20.82;43.95;102508.03;6366691;22;45323;-80
2024/01/30 05:43:19;;;;;;;;;8.33;6.33;;;;;20.67;44.01;102484.59;6367044;22;45190;-80
2024/01/30 05:45:44;;;;;;;;;3.67;3.67;;;;;20.76;43.79;102498.00;6367870;22;45280;-79
2024/01/30 05:48:10;;;;;;;;;5.67;4.33;;;;;20.87;43.59;102523.53;6339655;22;59094;-79
2024/01/30 05:50:35;;;;;;;;;6.67;5.67;;;;;20.83;43.45;102520.31;6368253;22;45362;-80
2024/01/30 05:53:00;;;;;;;;;7.33;3.67;;;;;20.89;43.68;102533.03;6368448;22;52429;-80
2024/01/30 05:55:26;;;;;;;;;3.67;3.67;;;;;20.72;44.08;102516.78;6368841;22;45233;-79
2024/01/30 05:57:52;;;;;;;;;5.25;5.25;;;;;20.76;43.44;102529.75;6368832;22;45353;-80
2024/01/30 06:00:18;;;;;;;;;7.00;5.00;;;;;20.88;43.84;102549.84;6368154;22;45298;-80
2024/01/30 06:02:43;;;;;;;;;6.33;6.33;;;;;20.88;43.83;102562.25;6368354;22;45224;-80
2024/01/30 06:05:08;;;;;;;;;6.67;3.67;;;;;20.79;43.77;102542.72;6369050;22;45562;-80
2024/01/30 06:07:34;;;;;;;;;5.00;5.00;;;;;20.82;43.95;102551.22;6368449;22;45529;-80
2024/01/30 06:10:01;;;;;;;;;6.00;5.00;;;;;20.85;43.60;102566.84;6368730;22;45311;-81
2024/01/30 06:12:27;;;;;;;;;5.25;3.75;;;;;20.84;43.93;102573.06;6368265;22;45174;-80
2024/01/30 06:14:54;;;;;;;;;6.67;5.67;;;;;20.85;43.73;102580.06;6368348;22;45368;-80
2024/01/30 06:17:19;;;;;;;;;3.67;3.67;;;;;20.84;43.85;102581.03;6368192;22;47417;-81
2024/01/30 06:19:44;;;;;;;;;5.67;5.67;;;;;20.81;43.98;102576.00;6368406;22;45359;-78
2024/01/30 06:22:10;;;;;;;;;4.00;3.67;;;;;20.84;43.58;102575.72;6340424;22;45355;-80
2024/01/30 06:24:35;;;;;;;;;4.67;3.67;;;;;20.71;43.43;102557.41;6368479;22;45285;-79
2024/01/30 06:27:00;;;;;;;;;3.67;3.00;;;;;20.76;43.43;102580.84;6368715;22;45311;-79
2024/01/30 06:29:26;;;;;;;;;5.00;4.33;;;;;20.85;43.68;102600.38;6368081;22;45327;-80
2024/01/30 06:31:52;;;;;;;;;5.67;4.67;;;;;20.84;44.04;102596.88;6368463;22;45331;-80
2024/01/30 06:34:17;;;;;;;;;6.00;4.33;;;;;20.83;43.63;102605.81;6368679;22;45360;-78
2024/01/30 06:36:42;;;;;;;;;4.33;4.00;;;;;20.79;43.90;102591.16;6334889;22;47828;-80
2024/01/30 06:39:09;;;;;;;;;3.67;3.67;;;;;20.82;43.63;102595.34;6336601;22;45303;-80
2024/01/30 06:41:34;;;;;;;;;4.00;4.00;;;;;20.65;44.01;102576.44;6336492;22;45686;-80
2024/01/30 06:44:03;;;;;;;;;4.67;4.00;;;;;20.83;44.05;102604.97;6336113;22;50263;-79
2024/01/30 06:46:28;;;;;;;;;4.00;4.00;;;;;20.82;43.99;102604.13;6336374;22;46257;-79
2024/01/30 06:48:54;;;;;;;;;4.00;4.00;;;;;20.72;43.48;102588.19;6336212;22;45247;-79
2024/01/30 06:51:19;;;;;;;;;4.00;4.00;;;;;20.74;43.65;102590.69;6336814;22;45161;-80
2024/01/30 06:53:44;;;;;;;;;3.67;3.67;;;;;20.75;43.51;102595.03;6336574;22;45441;-80
2024/01/30 06:56:10;;;;;;;;;4.33;4.33;;;;;20.85;43.54;102611.81;6336439;22;45320;-78
2024/01/30 06:58:35;;;;;;;;;3.67;3.67;;;;;20.87;43.86;102619.59;6335375;22;45291;-76
2024/01/30 07:01:00;;;;;;;;;3.67;3.67;;;;;20.88;43.67;102623.09;6336987;22;45188;-75
2024/01/30 07:03:26;;;;;;;;;4.33;4.33;;;;;20.89;43.63;102616.84;6336667;22;48917;-79
2024/01/30 07:05:51;;;;;;;;;3.67;3.67;;;;;20.90;43.39;102623.81;6336853;22;45256;-79
2024/01/30 07:08:19;;;;;;;;;3.67;3.67;;;;;20.90;43.75;102622.00;6335090;22;45327;-79
2024/01/30 07:10:45;;;;;;;;;2.67;2.67;;;;;20.90;43.71;102622.00;6335856;22;45236;-79
2024/01/30 07:13:13;;;;;;;;;3.67;3.67;;;;;20.91;43.60;102628.97;6335277;22;45246;-80
2024/01/30 07:15:38;;;;;;;;;4.00;4.00;;;;;20.91;43.82;102636.91;6335727;22;46146;-79
2024/01/30 07:18:05;;;;;;;;;3.33;3.33;;;;;20.93;43.75;102634.13;6335343;22;45272;-78
2024/01/30 07:20:31;;;;;;;;;2.67;2.67;;;;;20.90;43.92;102635.22;6335985;22;45307;-82
2024/01/30 07:22:59;;;;;;;;;4.00;4.00;;;;;20.70;44.14;102594.56;6336089;22;45248;-84
2024/01/30 07:25:27;;;;;;;;;4.00;3.67;;;;;20.73;44.39;102603.09;6335474;22;46402;-82
2024/01/30 07:27:56;;;;;;;;;2.67;2.67;;;;;20.57;44.07;102577.09;6320553;22;45361;-81
2024/01/30 07:30:23;;;;;;;;;3.67;3.67;;;;;20.63;44.12;102591.63;6333422;22;45366;-82
2024/01/30 07:32:48;;;;;;;;;4.67;2.67;;;;;20.62;44.21;102611.09;6333214;22;45383;-82
2024/01/30 07:35:14;;;;;;;;;4.00;4.00;;;;;20.96;44.13;102665.63;6332823;22;45404;-82
2024/01/30 07:37:40;;;;;;;;;3.00;3.00;;;;;20.68;43.50;102631.75;6353224;22;45339;-82
2024/01/30 07:40:06;;;;;;;;;3.67;3.67;;;;;20.71;43.90;102643.88;6365338;22;45382;-81
2024/01/30 07:42:33;;;;;;;;;3.67;2.67;;;;;20.92;44.25;102691.50;6364336;22;45739;-83
2024/01/30 07:44:58;;;;;;;;;4.00;2.67;;;;;20.93;44.30;102695.00;6364623;22;46098;-81
2024/01/30 07:47:24;;;;;;;;;3.00;2.33;;;;;20.84;43.80;102686.84;6364218;22;45234;-82
2024/01/30 07:49:49;;;;;;;;;2.67;2.67;;;;;20.68;43.67;102665.28;6364739;22;45278;-82
2024/01/30 07:52:14;;;;;;;;;2.67;2.67;;;;;20.93;43.71;102703.78;6364483;22;48201;-82
2024/01/30 07:54:49;;;;;;;;;3.00;3.00;;;;;20.90;44.04;102706.66;6364674;22;46085;-82
2024/01/30 07:57:14;;;;;;;;;5.33;4.00;;;;;20.77;43.67;102682.19;6364334;22;45178;-83
2024/01/30 07:59:42;;;;;;;;;3.00;3.00;;;;;20.72;43.97;102688.72;6364171;22;45202;-82
2024/01/30 08:02:07;;;;;;;;;2.33;1.67;;;;;20.88;44.07;102716.53;6365008;22;45421;-82
2024/01/30 08:04:33;;;;;;;;;3.00;2.67;;;;;20.79;43.97;102699.63;6364686;22;45457;-81
2024/01/30 08:06:58;;;;;;;;;2.33;2.00;;;;;20.73;43.88;102702.78;6364417;22;45741;-81
2024/01/30 08:09:23;;;;;;;;;3.33;2.33;;;;;20.92;44.38;102728.53;6363799;22;45318;-82
2024/01/30 08:11:49;;;;;;;;;2.67;2.67;;;;;20.93;43.90;102732.03;6363611;22;45414;-81
2024/01/30 08:14:14;;;;;;;;;4.33;3.67;;;;;20.93;43.62;102732.88;6364188;22;51340;-82
2024/01/30 08:16:39;;;;;;;;;3.00;2.00;;;;;20.78;43.79;102736.78;6364273;22;53428;-82
2024/01/30 08:19:05;;;;;;;;;2.67;2.67;;;;;20.88;43.74;102728.94;6364439;22;45255;-81
2024/01/30 08:21:30;;;;;;;;;2.33;2.33;;;;;20.92;43.57;102744.41;6364562;22;45252;-81
2024/01/30 08:23:55;;;;;;;;;6.00;4.67;;;;;20.88;43.78;102731.56;6363579;22;45234;-82
2024/01/30 08:26:21;;;;;;;;;2.67;2.67;;;;;20.93;43.96;102751.41;6363726;22;45403;-82
2024/01/30 08:28:46;;;;;;;;;3.67;3.67;;;;;20.93;43.86;102756.69;6363355;22;52373;-82
2024/01/30 08:31:12;;;;;;;;;3.67;3.67;;;;;20.83;44.17;102742.53;6364140;22;45326;-82
2024/01/30 08:33:37;;;;;;;;;2.33;2.00;;;;;20.61;43.52;102718.66;6364079;22;46070;-82
2024/01/30 08:36:03;;;;;;;;;2.67;2.67;;;;;20.74;43.96;102741.47;6364507;22;45621;-82
2024/01/30 08:38:28;;;;;;;;;1.67;1.67;;;;;20.53;43.54;102718.47;6335873;22;45517;-81
2024/01/30 08:40:55;;;;;;;;;3.00;3.00;;;;;20.78;43.96;102752.66;6363206;22;45380;-82
2024/01/30 08:43:20;;;;;;;;;2.00;2.00;;;;;20.89;43.49;102775.59;6364217;22;45351;-81
2024/01/30 08:45:45;;;;;;;;;4.67;2.67;;;;;20.79;43.77;102778.16;6363549;22;45710;-82
2024/01/30 08:48:11;;;;;;;;;3.00;2.67;;;;;20.89;43.91;102786.19;6364712;22;45365;-82
2024/01/30 08:50:36;;;;;;;;;2.67;2.67;;;;;20.90;43.83;102790.50;6365054;22;45288;-82
2024/01/30 08:53:02;;;;;;;;;2.00;2.00;;;;;20.77;43.58;102780.91;6364193;22;45387;-81
2024/01/30 08:55:28;;;;;;;;;1.67;1.67;;;;;20.91;43.48;102795.69;6363486;22;45738;-82
2024/01/30 08:57:53;;;;;;;;;2.67;2.67;;;;;20.91;43.52;102797.47;6363170;22;45275;-83
2024/01/30 09:00:19;;;;;;;;;3.67;3.67;;;;;20.54;43.65;102741.28;6364367;22;45221;-82
2024/01/30 09:02:44;;;;;;;;;3.67;2.67;;;;;20.78;43.98;102779.97;6363540;22;45443;-82
2024/01/30 09:05:10;;;;;;;;;2.00;2.00;;;;;19.96;43.89;102648.00;6364057;22;45287;-81
2024/01/30 09:07:35;;;;;;;;;1.67;1.67;;;;;20.92;43.68;102807.09;6364449;22;45231;-81
2024/01/30 09:10:00;;;;;;;;;2.67;2.67;;;;;20.78;43.69;102779.13;6363479;22;45304;-82
2024/01/30 09:12:26;;;;;;;;;1.67;1.67;;;;;20.83;43.48;102792.81;6363930;22;46318;-82
2024/01/30 09:14:51;;;;;;;;;4.00;3.00;;;;;20.91;43.91;102810.72;6363144;22;45371;-84
2024/01/30 09:17:16;;;;;;;;;4.00;4.00;;;;;20.68;43.83;102768.44;6364513;22;45299;-83
2024/01/30 09:19:42;;;;;;;;;1.00;0.67;;;;;20.89;43.63;102808.19;6363820;22;45318;-83
2024/01/30 09:22:07;;;;;;;;;2.33;2.33;;;;;20.91;43.58;102813.34;6365433;22;45240;-83
2024/01/30 09:24:33;;;;;;;;;4.33;4.33;;;;;20.66;43.60;102779.13;6365097;22;45350;-83
2024/01/30 09:26:58;;;;;;;;;1.67;1.67;;;;;20.84;43.38;102805.09;6365291;22;45410;-83
2024/01/30 09:29:24;;;;;;;;;1.67;1.67;;;;;20.92;43.86;102825.63;6364926;22;45521;-82
2024/01/30 09:31:49;;;;;;;;;2.00;2.00;;;;;20.89;43.76;102818.78;6365025;22;46915;-82
2024/01/30 09:34:14;;;;;;;;;0.67;0.67;;;;;20.73;43.45;102798.00;6364930;22;53920;-83
2024/01/30 09:36:40;;;;;;;;;2.67;2.67;;;;;20.97;43.59;102834.03;6353110;22;45474;-82
2024/01/30 09:39:06;;;;;;;;;2.00;2.00;;;;;20.58;43.76;102782.38;6378622;22;45401;-82
2024/01/30 09:41:44;;;;;;;;;2.00;2.00;;;;;21.00;43.89;102833.75;6365394;22;46728;-82
2024/01/30 09:44:12;;;;;;;;;2.00;2.00;;;;;21.01;43.85;102840.78;6365258;22;45302;-83
2024/01/30 09:46:38;;;;;;;;;3.33;2.33;;;;;20.92;43.48;102823.00;6366462;22;45476;-83
2024/01/30 09:49:04;;;;;;;;;1.67;1.67;;;;;21.02;43.79;102845.13;6365467;22;45212;-84
2024/01/30 09:51:30;;;;;;;;;1.67;1.67;;;;;21.04;43.80;102843.19;6365273;22;47140;-83
2024/01/30 09:53:56;;;;;;;;;2.33;1.67;;;;;21.04;43.63;102843.19;6364214;22;45370;-83
2024/01/30 09:56:22;;;;;;;;;2.00;2.00;;;;;21.05;43.70;102841.38;6364853;22;45319;-83
2024/01/30 09:58:48;;;;;;;;;1.67;1.67;;;;;21.05;43.78;102852.78;6365849;22;45411;-83
2024/01/30 10:01:18;;;;;;;;;3.33;1.67;;;;;20.93;43.32;102835.22;6365640;22;47319;-83
2024/01/30 10:03:43;;;;;;;;;2.33;2.00;;;;;20.98;43.85;102842.78;6364649;22;45469;-81
2024/01/30 10:06:10;;;;;;;;;2.00;1.67;;;;;20.99;43.77;102850.63;6364909;22;45609;-82
2024/01/30 10:08:35;;;;;;;;;1.33;0.67;;;;;21.08;43.49;102867.56;6364766;22;45767;-83
2024/01/30 10:11:01;;;;;;;;;1.67;0.67;;;;;20.88;43.38;102830.31;6364543;22;45323;-83
2024/01/30 10:13:27;;;;;;;;;1.33;1.33;;;;;21.04;43.44;102863.50;6364759;22;45394;-82
2024/01/30 10:15:53;;;;;;;;;2.33;2.33;;;;;21.10;43.77;102868.31;6365379;22;45792;-83
2024/01/30 10:18:18;;;;;;;;;0.33;0.33;;;;;20.93;43.67;102832.59;6365092;22;45299;-83
2024/01/30 10:20:43;;;;;;;;;4.00;1.00;;;;;20.93;43.14;102838.72;6364887;22;46120;-82
2024/01/30 10:23:09;;;;;;;;;1.67;1.67;;;;;21.14;43.49;102876.84;6365045;22;51611;-83
2024/01/30 10:25:35;;;;;;;;;1.00;1.00;;;;;21.05;43.63;102857.25;6365821;22;45738;-82
2024/01/30 10:28:00;;;;;;;;;1.67;1.67;;;;;20.97;43.26;102852.56;6365043;22;45836;-82
2024/01/30 10:30:27;;;;;;;;;3.67;1.67;;;;;20.91;43.19;102847.75;6365322;22;46131;-82
2024/01/30 10:32:53;;;;;;;;;1.33;1.33;;;;;21.06;43.16;102864.22;6363366;22;45284;-82
2024/01/30 10:35:18;;;;;;;;;2.00;2.00;;;;;21.13;43.57;102889.22;6365276;22;45240;-81
2024/01/30 10:37:47;;;;;;;;;0.67;0.67;;;;;21.15;43.12;102889.13;6364944;22;45406;-81
2024/01/30 10:40:13;;;;;;;;;1.67;1.67;;;;;21.15;43.13;102923.53;6364659;22;46385;-82
2024/01/30 10:42:45;;;;;;;;;1.33;1.33;;;;;21.12;43.54;102898.16;6365609;22;45307;-82
2024/01/30 10:45:17;;;;;;;;;2.33;2.00;;;;;21.00;43.39;102878.75;6365237;22;45840;-82
2024/01/30 10:47:50;;;;;;;;;1.00;1.00;;;;;21.14;43.05;102896.22;6365184;22;45390;-82
2024/01/30 10:50:15;;;;;;;;;4.67;2.00;;;;;20.94;43.42;102873.97;6364614;22;45423;-81
2024/01/30 10:52:44;;;;;;;;;3.00;3.00;;;;;21.16;43.24;102911.97;6364485;22;45217;-81
2024/01/30 10:55:10;;;;;;;;;1.00;1.00;;;;;21.11;43.37;102907.03;6364701;22;45602;-81
2024/01/30 10:57:36;;;;;;;;;2.00;2.00;;;;;21.15;43.18;102916.44;6365165;22;45407;-83
2024/01/30 11:00:05;;;;;;;;;3.00;3.00;;;;;21.16;43.29;102923.41;6366461;22;45831;-83
2024/01/30 11:02:32;;;;;;;;;1.67;1.67;;;;;21.16;43.60;102925.19;6365193;22;45688;-83
2024/01/30 11:04:58;;;;;;;;;3.00;3.00;;;;;21.05;43.33;102903.06;6363861;22;45304;-82
2024/01/30 11:07:29;;;;;;;;;3.00;2.00;;;;;21.10;43.53;102907.19;6364703;22;45404;-81
2024/01/30 11:10:02;;;;;;;;;1.33;1.00;;;;;21.17;43.20;102922.44;6364089;22;46854;-81
2024/01/30 11:12:28;;;;;;;;;1.00;1.00;;;;;21.00;43.56;102893.81;6364708;22;45816;-82
2024/01/30 11:15:14;;;;;;;;;2.00;2.00;;;;;21.08;43.23;102906.47;6365125;22;45272;-82
2024/01/30 11:17:48;;;;;;;;;1.67;1.67;;;;;21.15;43.34;102921.72;6365020;22;45802;-82